Calgary, Canada
Current Conditions -  °F | °C
As of 2:00 AM on Thursday 23 Oct 2014 (Local Time) from CYYC Reporting Station
Broken Clouds Broken Clouds  
Wind Chill:   Ceiling: 21000
Heat Index:   Visibility: 15mi
Dew Point:   Wind: 5mph
Humidity: 66%   Direction: 290°WNW
Pressure: 29.57"   Gusts: NA
Location:  51.05°N, 114.06°W
Report Text: CYYC 230800Z 29004KT 240V320 15SM FEW170 BKN210 07/01 A2957 RMK AC1CI6 AC TR SLP025 DENSITY ALT 3900FT
Loading
Personal Weather Stations






























Interactive Weather Map
Tropical Storm Tracking
New forecast layout! Learn more

10-Day Weather Forecast

Advertisements
Track Severe Weather on mobile